createdAt,value
2023-05-09T00:01:40.026Z,11.55
2023-05-09T00:04:07.683Z,12.68
2023-05-09T00:06:35.360Z,25.15
2023-05-09T00:09:03.000Z,11.43
2023-05-09T00:11:30.292Z,25.67
2023-05-09T00:13:58.533Z,31.58
2023-05-09T00:16:25.910Z,21.25
2023-05-09T00:18:53.562Z,79.60
2023-05-09T00:21:20.899Z,36.92
2023-05-09T00:23:48.514Z,81.32
2023-05-09T00:26:16.560Z,37.75
2023-05-09T00:28:44.129Z,15.73
2023-05-09T00:31:11.714Z,56.92
2023-05-09T00:33:39.479Z,22.48
2023-05-09T00:36:06.937Z,31.52
2023-05-09T00:38:34.524Z,59.75
2023-05-09T00:41:01.802Z,21.48
2023-05-09T00:43:29.503Z,17.20
2023-05-09T00:45:56.903Z,19.73
2023-05-09T00:48:24.668Z,15.75
2023-05-09T00:50:53.064Z,15.10
2023-05-09T00:53:21.368Z,22.17
2023-05-09T00:55:49.223Z,19.95
2023-05-09T00:58:19.271Z,10.75
2023-05-09T01:00:46.933Z,18.23
2023-05-09T01:03:14.730Z,28.35
2023-05-09T01:05:53.554Z,33.55
2023-05-09T01:08:21.291Z,27.38
2023-05-09T01:10:51.894Z,31.92
2023-05-09T01:13:27.430Z,24.80
2023-05-09T01:15:57.964Z,23.83
2023-05-09T01:18:25.648Z,23.77
2023-05-09T01:21:03.790Z,20.35
2023-05-09T01:23:31.551Z,17.52
2023-05-09T01:26:17.466Z,24.58
2023-05-09T01:29:12.757Z,16.83
2023-05-09T01:31:44.231Z,18.95
2023-05-09T01:34:12.352Z,19.98
2023-05-09T01:36:40.968Z,24.15
2023-05-09T01:39:12.392Z,22.45
2023-05-09T01:41:39.870Z,15.20
2023-05-09T01:44:08.865Z,20.40
2023-05-09T01:46:36.811Z,20.67
2023-05-09T01:49:05.756Z,14.95
2023-05-09T01:51:34.357Z,22.30
2023-05-09T01:54:02.555Z,21.08
2023-05-09T01:56:31.109Z,14.10
2023-05-09T01:58:59.221Z,17.95
2023-05-09T02:01:26.703Z,16.05
2023-05-09T02:03:54.952Z,17.83
2023-05-09T02:06:23.831Z,16.38
2023-05-09T02:08:51.682Z,24.55
2023-05-09T02:11:19.057Z,20.05
2023-05-09T02:13:47.053Z,23.75
2023-05-09T02:16:15.215Z,15.38
2023-05-09T02:18:43.005Z,19.00
2023-05-09T02:21:10.426Z,22.98
2023-05-09T02:23:38.334Z,20.95
2023-05-09T02:26:05.982Z,19.17
2023-05-09T02:28:34.079Z,27.60
2023-05-09T02:31:03.484Z,20.23
2023-05-09T02:33:31.431Z,14.00
2023-05-09T02:35:58.808Z,21.17
2023-05-09T02:38:27.384Z,21.98
2023-05-09T02:40:54.868Z,17.75
2023-05-09T02:43:22.612Z,20.42
2023-05-09T02:45:50.019Z,20.75
2023-05-09T02:48:17.769Z,19.25
2023-05-09T02:50:45.955Z,21.48
2023-05-09T02:53:13.601Z,72.25
2023-05-09T02:55:41.377Z,46.65
2023-05-09T02:58:13.517Z,47.63
2023-05-09T03:00:41.815Z,35.05
2023-05-09T03:03:10.041Z,27.63
2023-05-09T03:05:37.450Z,57.20
2023-05-09T03:08:05.591Z,46.88
2023-05-09T03:10:33.126Z,46.88
2023-05-09T03:13:00.939Z,34.30
2023-05-09T03:15:28.352Z,24.77
2023-05-09T03:17:56.027Z,23.23
2023-05-09T03:20:23.443Z,16.13
2023-05-09T03:22:51.150Z,17.38
2023-05-09T03:25:18.484Z,23.52
2023-05-09T03:27:46.155Z,23.17
2023-05-09T03:30:13.752Z,31.52
2023-05-09T03:32:41.512Z,45.47
2023-05-09T03:35:09.027Z,107.22
2023-05-09T03:37:36.639Z,59.65
2023-05-09T03:40:04.864Z,47.60
2023-05-09T03:42:32.667Z,24.98
2023-05-09T03:45:00.029Z,70.50
2023-05-09T03:47:27.753Z,75.05
2023-05-09T03:49:55.153Z,26.10
2023-05-09T03:52:22.856Z,19.83
2023-05-09T03:54:50.258Z,21.55
2023-05-09T03:57:17.876Z,12.50
2023-05-09T03:59:45.204Z,14.32
2023-05-09T04:02:12.922Z,18.80
2023-05-09T04:04:40.306Z,65.15
2023-05-09T04:07:08.067Z,49.30
2023-05-09T04:09:35.651Z,40.20
2023-05-09T04:12:03.367Z,10.40
2023-05-09T04:14:31.069Z,12.43
2023-05-09T04:16:58.773Z,84.13
2023-05-09T04:19:26.153Z,25.77
2023-05-09T04:21:53.894Z,67.78
2023-05-09T04:24:21.270Z,36.92
2023-05-09T04:26:49.029Z,15.43
2023-05-09T04:29:16.412Z,10.13
2023-05-09T04:31:44.143Z,8.63
2023-05-09T04:34:11.798Z,11.50
2023-05-09T04:36:39.421Z,13.40
2023-05-09T04:39:08.052Z,8.38
2023-05-09T04:41:36.034Z,12.15
2023-05-09T04:44:03.572Z,17.42
2023-05-09T04:46:31.302Z,11.35
2023-05-09T04:48:58.737Z,12.15
2023-05-09T04:51:26.591Z,15.27
2023-05-09T04:53:53.982Z,19.52
2023-05-09T04:56:21.901Z,13.50
2023-05-09T04:58:49.447Z,15.30
2023-05-09T05:01:17.353Z,15.15
2023-05-09T05:03:46.169Z,10.80
2023-05-09T05:06:14.047Z,12.40
2023-05-09T05:08:41.574Z,12.82
2023-05-09T05:11:09.544Z,13.25
2023-05-09T05:13:37.011Z,10.95
2023-05-09T05:16:05.612Z,13.13
2023-05-09T05:18:33.120Z,11.30
2023-05-09T05:21:00.730Z,12.85
2023-05-09T05:23:28.232Z,14.75
2023-05-09T05:25:55.819Z,14.07
2023-05-09T05:28:23.558Z,13.02
2023-05-09T05:30:51.171Z,10.82
2023-05-09T05:33:18.539Z,14.05
2023-05-09T05:35:46.304Z,11.57
2023-05-09T05:38:13.560Z,10.02
2023-05-09T05:40:41.196Z,16.27
2023-05-09T05:43:08.709Z,9.57
2023-05-09T05:45:36.630Z,9.55
2023-05-09T05:48:04.116Z,12.55
2023-05-09T05:50:31.837Z,15.52
2023-05-09T05:52:59.360Z,11.07
2023-05-09T05:55:27.217Z,11.18
2023-05-09T05:57:54.646Z,10.57
2023-05-09T06:00:22.416Z,12.88
2023-05-09T06:02:50.028Z,12.00
2023-05-09T06:05:18.031Z,12.82
2023-05-09T06:07:45.570Z,13.23
2023-05-09T06:10:13.343Z,13.45
2023-05-09T06:12:41.018Z,11.55
2023-05-09T06:15:08.905Z,11.60
2023-05-09T06:17:36.444Z,14.30
2023-05-09T06:20:04.273Z,16.58
2023-05-09T06:22:31.607Z,9.98
2023-05-09T06:24:59.592Z,12.95
2023-05-09T06:27:27.156Z,16.30
2023-05-09T06:29:54.991Z,11.15
2023-05-09T06:32:22.511Z,12.65
2023-05-09T06:34:50.692Z,13.23
2023-05-09T06:37:18.120Z,11.52
2023-05-09T06:39:45.885Z,13.48
2023-05-09T06:42:13.213Z,14.57
2023-05-09T06:44:41.107Z,14.25
2023-05-09T06:47:08.536Z,15.35
2023-05-09T06:49:36.265Z,15.75
2023-05-09T06:52:03.744Z,15.73
2023-05-09T06:54:31.412Z,14.05
2023-05-09T06:56:58.859Z,10.98
2023-05-09T06:59:26.773Z,12.63
2023-05-09T07:01:54.619Z,10.90
2023-05-09T07:04:22.333Z,14.45
2023-05-09T07:06:49.667Z,12.68
2023-05-09T07:09:20.513Z,8.82
2023-05-09T07:11:47.856Z,15.88
2023-05-09T07:14:15.700Z,11.18
2023-05-09T07:16:43.185Z,12.93
2023-05-09T07:19:11.115Z,10.50
2023-05-09T07:21:38.568Z,10.80
2023-05-09T07:24:06.516Z,12.48
2023-05-09T07:26:33.827Z,10.27
2023-05-09T07:29:01.414Z,12.60
2023-05-09T07:31:28.941Z,9.82
2023-05-09T07:33:56.646Z,11.60
2023-05-09T07:36:24.100Z,10.73
2023-05-09T07:38:52.681Z,10.48
2023-05-09T07:41:20.589Z,10.15
2023-05-09T07:43:48.260Z,17.15
2023-05-09T07:46:15.899Z,11.20
2023-05-09T07:48:43.677Z,12.93
2023-05-09T07:51:11.118Z,9.27
2023-05-09T07:53:38.852Z,11.65
2023-05-09T07:56:06.782Z,10.05
2023-05-09T07:58:34.581Z,9.73
2023-05-09T08:01:01.888Z,13.52
2023-05-09T08:03:30.006Z,11.85
2023-05-09T08:05:57.392Z,10.63
2023-05-09T08:08:25.144Z,14.35
2023-05-09T08:10:52.467Z,9.48
2023-05-09T08:13:20.989Z,18.83
2023-05-09T08:15:48.844Z,17.80
2023-05-09T08:18:16.484Z,11.65
2023-05-09T08:20:43.811Z,12.88
2023-05-09T08:23:11.420Z,11.52
2023-05-09T08:25:38.775Z,12.65
2023-05-09T08:28:06.679Z,10.07
2023-05-09T08:30:33.966Z,10.80
2023-05-09T08:33:01.823Z,11.73
2023-05-09T08:35:29.211Z,9.75
2023-05-09T08:37:57.117Z,11.18
2023-05-09T08:40:24.544Z,10.20
2023-05-09T08:42:52.396Z,8.75
2023-05-09T08:45:23.624Z,9.82
2023-05-09T08:47:51.532Z,9.73
2023-05-09T08:50:19.211Z,6.22
2023-05-09T08:52:47.242Z,7.65
2023-05-09T08:55:15.014Z,5.20
2023-05-09T08:57:42.567Z,9.52
2023-05-09T09:00:11.345Z,6.10
2023-05-09T09:02:41.660Z,6.53
2023-05-09T09:05:19.653Z,5.38
2023-05-09T09:07:58.087Z,6.57
2023-05-09T09:10:27.305Z,9.27
2023-05-09T09:12:57.257Z,5.53
2023-05-09T09:15:26.817Z,7.85
2023-05-09T09:17:56.715Z,7.15
2023-05-09T09:20:25.045Z,6.72
2023-05-09T09:22:52.775Z,7.47
2023-05-09T09:25:20.152Z,7.30
2023-05-09T09:27:47.708Z,9.73
2023-05-09T09:30:15.492Z,12.77
2023-05-09T09:32:44.065Z,8.07
2023-05-09T09:35:12.559Z,6.45
2023-05-09T09:37:40.594Z,10.38
2023-05-09T09:40:10.017Z,6.68
2023-05-09T09:42:42.258Z,5.72
2023-05-09T09:45:09.810Z,4.95
2023-05-09T09:47:37.563Z,4.65
2023-05-09T09:50:31.173Z,5.43
2023-05-09T09:53:00.627Z,7.28
2023-05-09T09:55:28.068Z,7.07
2023-05-09T09:57:55.962Z,5.47
2023-05-09T10:00:30.785Z,7.25
2023-05-09T10:02:59.404Z,5.93
2023-05-09T10:05:31.522Z,11.57
2023-05-09T10:08:02.769Z,4.82
2023-05-09T10:10:34.397Z,5.88
2023-05-09T10:13:05.807Z,7.30
2023-05-09T10:15:45.096Z,3.63
2023-05-09T10:18:22.619Z,6.50
2023-05-09T10:20:50.107Z,8.77
2023-05-09T10:23:19.229Z,4.75
2023-05-09T10:25:53.738Z,5.13
2023-05-09T10:28:23.724Z,6.50
2023-05-09T10:30:55.683Z,3.97
2023-05-09T10:33:28.040Z,4.95
2023-05-09T10:35:56.134Z,4.53
2023-05-09T10:38:24.816Z,4.07
2023-05-09T10:40:53.370Z,4.57
2023-05-09T10:43:23.952Z,6.55
2023-05-09T10:45:52.142Z,4.63
2023-05-09T10:48:20.464Z,5.28
2023-05-09T10:50:48.062Z,4.10
2023-05-09T10:53:17.160Z,6.18
2023-05-09T10:55:47.911Z,6.72
2023-05-09T10:58:27.631Z,4.97
2023-05-09T11:00:57.286Z,5.45
2023-05-09T11:03:29.550Z,6.85
2023-05-09T11:05:57.840Z,5.63
2023-05-09T11:08:29.599Z,5.72
2023-05-09T11:10:58.114Z,5.38
2023-05-09T11:13:27.525Z,5.82
2023-05-09T11:16:02.150Z,4.18
2023-05-09T11:18:30.390Z,5.55
2023-05-09T11:20:58.021Z,3.55
2023-05-09T11:23:33.370Z,3.58
2023-05-09T11:26:08.051Z,6.90
2023-05-09T11:28:39.609Z,3.90
2023-05-09T11:31:10.441Z,5.68
2023-05-09T11:33:39.368Z,4.05
2023-05-09T11:36:20.417Z,3.28
2023-05-09T11:38:49.000Z,4.30
2023-05-09T11:41:16.880Z,5.72
2023-05-09T11:43:45.059Z,4.47
2023-05-09T11:46:13.048Z,3.92
2023-05-09T11:48:42.373Z,5.32
2023-05-09T11:51:17.601Z,3.13
2023-05-09T11:53:47.067Z,9.55
2023-05-09T11:56:15.104Z,4.38
2023-05-09T11:58:44.036Z,7.22
2023-05-09T12:01:12.789Z,7.80
2023-05-09T12:03:46.619Z,3.35
2023-05-09T12:06:21.057Z,5.10
2023-05-09T12:08:48.899Z,5.18
2023-05-09T12:11:16.283Z,7.60
2023-05-09T12:13:48.109Z,4.35
2023-05-09T12:16:16.304Z,5.85
2023-05-09T12:18:50.494Z,5.05
2023-05-09T12:21:18.464Z,4.38
2023-05-09T12:23:51.269Z,6.30
2023-05-09T12:26:22.722Z,7.35
2023-05-09T12:28:50.967Z,3.35
2023-05-09T12:31:18.710Z,3.65
2023-05-09T12:33:46.926Z,5.38
2023-05-09T12:36:15.888Z,3.35
2023-05-09T12:38:52.985Z,1.92
2023-05-09T12:41:34.983Z,4.43
2023-05-09T12:44:07.800Z,5.57
2023-05-09T12:46:37.404Z,7.35
2023-05-09T12:49:05.518Z,6.85
2023-05-09T12:51:32.957Z,4.15
2023-05-09T12:54:04.934Z,5.13
2023-05-09T12:56:35.839Z,3.05
2023-05-09T12:59:03.408Z,4.30
2023-05-09T13:01:31.008Z,4.20
2023-05-09T13:04:06.790Z,6.85
2023-05-09T13:06:35.659Z,5.13
2023-05-09T13:09:06.305Z,3.78
2023-05-09T13:11:34.213Z,6.47
2023-05-09T13:14:04.129Z,4.97
2023-05-09T13:16:31.600Z,3.95
2023-05-09T13:18:59.255Z,3.95
2023-05-09T13:21:26.660Z,3.55
2023-05-09T13:23:54.793Z,9.32
2023-05-09T13:26:22.732Z,6.70
2023-05-09T13:28:50.428Z,5.68
2023-05-09T13:31:19.154Z,4.20
2023-05-09T13:33:48.632Z,6.85
2023-05-09T13:36:17.390Z,3.95
2023-05-09T13:38:45.857Z,4.65
2023-05-09T13:41:19.827Z,4.35
2023-05-09T13:43:47.543Z,6.68
2023-05-09T13:46:15.064Z,3.05
2023-05-09T13:48:42.811Z,4.50
2023-05-09T13:51:11.131Z,5.90
2023-05-09T13:53:39.345Z,12.07
2023-05-09T13:56:09.223Z,10.15
2023-05-09T13:58:36.962Z,5.03
2023-05-09T14:01:04.611Z,10.18
2023-05-09T14:03:32.515Z,4.18
2023-05-09T14:05:59.980Z,3.70
2023-05-09T14:08:27.686Z,8.15
2023-05-09T14:10:55.417Z,2.72
2023-05-09T14:13:23.499Z,4.13
2023-05-09T14:15:50.960Z,8.85
2023-05-09T14:18:20.748Z,6.40
2023-05-09T14:20:48.463Z,3.10
2023-05-09T14:23:16.284Z,3.85
2023-05-09T14:25:43.810Z,6.80
2023-05-09T14:28:12.342Z,4.55
2023-05-09T14:30:39.909Z,6.55
2023-05-09T14:33:07.773Z,3.55
2023-05-09T14:35:35.409Z,7.03
2023-05-09T14:38:03.573Z,6.43
2023-05-09T14:40:32.145Z,8.70
2023-05-09T14:43:02.378Z,5.63
2023-05-09T14:45:30.488Z,5.82
2023-05-09T14:47:58.521Z,4.32
2023-05-09T14:50:26.255Z,5.80
2023-05-09T14:52:53.913Z,11.88
2023-05-09T14:55:23.128Z,4.00
2023-05-09T14:57:50.993Z,8.40
2023-05-09T15:00:21.989Z,3.75
2023-05-09T15:02:50.699Z,4.97
2023-05-09T15:05:18.298Z,6.20
2023-05-09T15:07:46.393Z,3.63
2023-05-09T15:10:14.758Z,14.27
2023-05-09T15:12:42.917Z,4.80
2023-05-09T15:15:14.693Z,7.80
2023-05-09T15:17:43.295Z,3.95
2023-05-09T15:20:11.646Z,5.95
2023-05-09T15:22:39.665Z,5.97
2023-05-09T15:25:07.714Z,10.13
2023-05-09T15:27:36.267Z,11.10
2023-05-09T15:30:04.548Z,6.15
2023-05-09T15:32:32.482Z,3.92
2023-05-09T15:34:59.928Z,4.90
2023-05-09T15:37:27.664Z,6.15
2023-05-09T15:39:55.119Z,10.00
2023-05-09T15:42:23.322Z,4.88
2023-05-09T15:44:50.695Z,5.05
2023-05-09T15:47:19.430Z,4.75
2023-05-09T15:49:46.860Z,6.75
2023-05-09T15:52:14.832Z,5.78
2023-05-09T15:54:45.106Z,10.43
2023-05-09T15:57:17.462Z,7.55
2023-05-09T15:59:44.938Z,9.65
2023-05-09T16:02:12.681Z,6.63
2023-05-09T16:04:40.264Z,5.03
2023-05-09T16:07:08.980Z,4.25
2023-05-09T16:09:37.298Z,6.25
2023-05-09T16:12:05.627Z,3.97
2023-05-09T16:14:33.108Z,6.38
2023-05-09T16:17:00.853Z,7.28
2023-05-09T16:19:28.671Z,7.03
2023-05-09T16:21:56.444Z,5.28
2023-05-09T16:24:23.776Z,3.42
2023-05-09T16:26:51.495Z,8.95
2023-05-09T16:29:18.804Z,5.43
2023-05-09T16:31:46.556Z,8.05
2023-05-09T16:34:13.978Z,4.25
2023-05-09T16:36:44.061Z,7.65
2023-05-09T16:39:11.899Z,5.80
2023-05-09T16:41:39.976Z,8.13
2023-05-09T16:44:07.314Z,5.78
2023-05-09T16:46:35.005Z,5.20
2023-05-09T16:49:02.300Z,5.03
2023-05-09T16:51:30.613Z,6.15
2023-05-09T16:53:58.428Z,4.20
2023-05-09T16:56:26.693Z,5.00
2023-05-09T16:58:54.346Z,6.43
2023-05-09T17:01:22.151Z,4.95
2023-05-09T17:03:50.315Z,6.68
2023-05-09T17:06:18.573Z,9.90
2023-05-09T17:08:46.412Z,4.93
2023-05-09T17:11:14.067Z,8.15
2023-05-09T17:13:42.894Z,6.25
2023-05-09T17:16:10.967Z,20.02
2023-05-09T17:18:38.557Z,10.32
2023-05-09T17:21:06.975Z,6.50
2023-05-09T17:23:35.243Z,7.45
2023-05-09T17:26:03.890Z,6.70
2023-05-09T17:28:31.500Z,5.13
2023-05-09T17:30:59.595Z,4.65
2023-05-09T17:33:28.021Z,8.80
2023-05-09T17:35:57.815Z,10.60
2023-05-09T17:38:25.539Z,10.82
2023-05-09T17:40:53.897Z,11.25
2023-05-09T17:43:22.402Z,8.77
2023-05-09T17:45:52.009Z,11.18
2023-05-09T17:48:20.000Z,15.88
2023-05-09T17:50:48.005Z,12.10
2023-05-09T17:53:16.096Z,19.65
2023-05-09T17:55:43.890Z,19.60
2023-05-09T17:58:11.379Z,17.10
2023-05-09T18:00:40.058Z,9.27
2023-05-09T18:03:07.616Z,10.93
2023-05-09T18:05:35.829Z,26.90
2023-05-09T18:08:04.037Z,17.50
2023-05-09T18:10:32.165Z,10.93
2023-05-09T18:12:59.874Z,17.35
2023-05-09T18:15:27.902Z,13.40
2023-05-09T18:17:57.764Z,12.27
2023-05-09T18:20:25.878Z,21.02
2023-05-09T18:22:54.502Z,12.95
2023-05-09T18:25:22.517Z,15.07
2023-05-09T18:27:50.052Z,15.88
2023-05-09T18:30:18.663Z,19.65
2023-05-09T18:32:47.244Z,17.60
2023-05-09T18:35:16.307Z,19.35
2023-05-09T18:37:43.944Z,15.13
2023-05-09T18:40:16.104Z,14.57
2023-05-09T18:42:44.072Z,13.47
2023-05-09T18:45:12.585Z,15.65
2023-05-09T18:47:40.461Z,19.85
2023-05-09T18:50:08.612Z,18.35
2023-05-09T18:52:36.065Z,12.88
2023-05-09T18:55:06.004Z,14.73
2023-05-09T18:57:34.096Z,16.52
2023-05-09T19:00:02.685Z,13.82
2023-05-09T19:02:30.874Z,12.43
2023-05-09T19:05:00.912Z,11.88
2023-05-09T19:07:29.256Z,11.82
2023-05-09T19:09:57.217Z,13.70
2023-05-09T19:12:25.185Z,17.08
2023-05-09T19:14:53.945Z,14.65
2023-05-09T19:17:21.580Z,23.80
2023-05-09T19:19:49.555Z,18.25
2023-05-09T19:22:17.010Z,27.92
2023-05-09T19:24:45.061Z,23.33
2023-05-09T19:27:12.667Z,14.85
2023-05-09T19:29:40.802Z,13.65
2023-05-09T19:32:08.933Z,19.88
2023-05-09T19:34:38.138Z,24.45
2023-05-09T19:37:05.935Z,20.75
2023-05-09T19:39:34.330Z,19.33
2023-05-09T19:42:02.644Z,20.73
2023-05-09T19:44:32.480Z,12.75
2023-05-09T19:47:01.486Z,11.50
2023-05-09T19:49:29.211Z,9.65
2023-05-09T19:51:56.812Z,8.32
2023-05-09T19:54:26.982Z,22.08
2023-05-09T19:56:54.485Z,14.02
2023-05-09T19:59:24.033Z,17.05
2023-05-09T20:01:51.560Z,13.40
2023-05-09T20:04:21.882Z,10.57
2023-05-09T20:06:49.290Z,11.52
2023-05-09T20:09:20.853Z,10.85
2023-05-09T20:11:48.556Z,13.80
2023-05-09T20:14:16.336Z,10.95
2023-05-09T20:16:43.985Z,14.90
2023-05-09T20:19:15.580Z,12.18
2023-05-09T20:21:43.043Z,13.85
2023-05-09T20:24:11.737Z,11.27
2023-05-09T20:26:39.395Z,12.63
2023-05-09T20:29:07.212Z,14.90
2023-05-09T20:31:34.897Z,16.15
2023-05-09T20:34:02.909Z,14.45
2023-05-09T20:36:30.586Z,13.77
2023-05-09T20:38:58.467Z,12.18
2023-05-09T20:41:25.859Z,12.52
2023-05-09T20:43:53.549Z,14.60
2023-05-09T20:46:21.188Z,11.30
2023-05-09T20:48:48.856Z,16.58
2023-05-09T20:51:16.223Z,19.42
2023-05-09T20:53:43.860Z,11.93
2023-05-09T20:56:11.170Z,9.73
2023-05-09T20:58:38.782Z,10.85
2023-05-09T21:01:06.212Z,12.02
2023-05-09T21:03:33.901Z,11.07
2023-05-09T21:06:01.281Z,8.38
2023-05-09T21:08:28.877Z,10.93
2023-05-09T21:10:56.175Z,13.13
2023-05-09T21:13:24.051Z,9.23
2023-05-09T21:15:51.625Z,8.25
2023-05-09T21:18:19.925Z,8.18
2023-05-09T21:20:47.340Z,8.73
2023-05-09T21:23:15.375Z,8.88
2023-05-09T21:25:42.701Z,6.30
2023-05-09T21:28:10.452Z,10.68
2023-05-09T21:30:37.777Z,8.93
2023-05-09T21:33:05.450Z,7.03
2023-05-09T21:35:32.899Z,7.05
2023-05-09T21:38:00.542Z,7.43
2023-05-09T21:40:28.031Z,7.63
2023-05-09T21:42:55.702Z,10.60
2023-05-09T21:45:23.146Z,10.13
2023-05-09T21:47:51.513Z,15.30
2023-05-09T21:50:19.114Z,9.77
2023-05-09T21:52:46.818Z,10.93
2023-05-09T21:55:14.382Z,11.70
2023-05-09T21:57:41.940Z,9.55
2023-05-09T22:00:16.759Z,13.85
2023-05-09T22:02:44.725Z,10.82
2023-05-09T22:05:12.617Z,9.82
2023-05-09T22:07:40.463Z,10.35
2023-05-09T22:10:08.077Z,8.73
2023-05-09T22:12:35.934Z,11.10
2023-05-09T22:15:03.315Z,9.45
2023-05-09T22:17:31.026Z,7.57
2023-05-09T22:19:58.739Z,10.88
2023-05-09T22:22:27.242Z,16.40
2023-05-09T22:24:54.625Z,8.38
2023-05-09T22:27:22.195Z,7.63
2023-05-09T22:29:49.797Z,15.13
2023-05-09T22:32:17.864Z,9.73
2023-05-09T22:34:48.086Z,12.65
2023-05-09T22:37:16.027Z,7.50
2023-05-09T22:39:43.475Z,9.75
2023-05-09T22:42:11.376Z,13.93
2023-05-09T22:44:39.472Z,8.77
2023-05-09T22:47:10.522Z,15.23
2023-05-09T22:49:37.930Z,15.73
2023-05-09T22:52:05.650Z,10.35
2023-05-09T22:54:33.077Z,14.55
2023-05-09T22:57:01.018Z,10.07
2023-05-09T22:59:28.429Z,7.50
2023-05-09T23:01:57.724Z,6.95
2023-05-09T23:04:25.078Z,12.20
2023-05-09T23:06:52.874Z,8.90
2023-05-09T23:09:20.334Z,6.75
2023-05-09T23:11:47.907Z,10.65
2023-05-09T23:14:15.337Z,8.77
2023-05-09T23:16:43.042Z,8.57
2023-05-09T23:19:10.851Z,7.97
2023-05-09T23:21:38.807Z,14.63
2023-05-09T23:24:06.315Z,7.95
2023-05-09T23:26:34.126Z,6.57
2023-05-09T23:29:01.691Z,8.48
2023-05-09T23:31:29.761Z,9.27
2023-05-09T23:33:57.189Z,7.38
2023-05-09T23:36:24.838Z,8.55
2023-05-09T23:38:52.323Z,6.95
2023-05-09T23:41:21.958Z,6.63
2023-05-09T23:43:49.466Z,4.63
2023-05-09T23:46:17.455Z,8.20
2023-05-09T23:48:44.797Z,7.35
2023-05-09T23:51:12.987Z,11.23
2023-05-09T23:53:40.302Z,7.05
2023-05-09T23:56:08.272Z,6.88
2023-05-09T23:58:35.562Z,6.05
